createdAt,value
2023-03-12T00:00:21.728Z,96415.38
2023-03-12T00:01:24.782Z,96419.25
2023-03-12T00:02:26.695Z,96413.56
2023-03-12T00:03:28.566Z,96419.53
2023-03-12T00:04:31.665Z,96427.91
2023-03-12T00:05:33.580Z,96421.78
2023-03-12T00:06:35.330Z,96420.00
2023-03-12T00:07:37.100Z,96423.53
2023-03-12T00:08:39.525Z,96430.31
2023-03-12T00:09:41.299Z,96427.91
2023-03-12T00:10:43.168Z,96424.69
2023-03-12T00:11:44.958Z,96424.91
2023-03-12T00:12:46.952Z,96436.38
2023-03-12T00:13:52.080Z,96426.06
2023-03-12T00:14:53.871Z,96425.44
2023-03-12T00:15:55.734Z,96423.66
2023-03-12T00:16:57.625Z,96429.81
2023-03-12T00:17:59.431Z,96433.22
2023-03-12T00:19:01.633Z,96427.59
2023-03-12T00:20:03.909Z,96430.19
2023-03-12T00:21:06.295Z,96422.75
2023-03-12T00:22:08.119Z,96434.50
2023-03-12T00:23:09.927Z,96434.03
2023-03-12T00:24:11.796Z,96434.81
2023-03-12T00:25:15.361Z,96432.25
2023-03-12T00:26:17.973Z,96433.06
2023-03-12T00:27:20.263Z,96428.06
2023-03-12T00:28:22.104Z,96438.22
2023-03-12T00:29:23.889Z,96436.13
2023-03-12T00:30:28.856Z,96437.66
2023-03-12T00:31:33.078Z,96437.66
2023-03-12T00:32:35.583Z,96436.50
2023-03-12T00:33:37.443Z,96439.34
2023-03-12T00:34:39.275Z,96437.75
2023-03-12T00:35:41.171Z,96434.06
2023-03-12T00:36:43.103Z,96432.47
2023-03-12T00:37:44.961Z,96434.59
2023-03-12T00:38:46.808Z,96434.97
2023-03-12T00:39:48.663Z,96438.38
2023-03-12T00:40:50.516Z,96438.88
2023-03-12T00:41:52.366Z,96442.47
2023-03-12T00:42:54.124Z,96432.31
2023-03-12T00:43:56.292Z,96434.91
2023-03-12T00:44:58.074Z,96435.28
2023-03-12T00:45:59.827Z,96433.69
2023-03-12T00:47:01.782Z,96444.16
2023-03-12T00:48:03.989Z,96437.06
2023-03-12T00:49:05.764Z,96437.84
2023-03-12T00:50:07.728Z,96444.16
2023-03-12T00:51:09.649Z,96441.72
2023-03-12T00:52:11.755Z,96438.19
2023-03-12T00:53:13.500Z,96440.28
2023-03-12T00:54:15.312Z,96438.81
2023-03-12T00:55:17.204Z,96446.03
2023-03-12T00:56:19.028Z,96437.16
2023-03-12T00:57:20.933Z,96436.06
2023-03-12T00:58:22.770Z,96442.34
2023-03-12T00:59:24.592Z,96439.28
2023-03-12T01:00:26.481Z,96444.44
2023-03-12T01:01:28.481Z,96439.13
2023-03-12T01:02:30.352Z,96442.72
2023-03-12T01:03:32.153Z,96442.41
2023-03-12T01:04:33.995Z,96435.66
2023-03-12T01:05:38.138Z,96442.41
2023-03-12T01:06:39.936Z,96438.69
2023-03-12T01:07:42.016Z,96439.31
2023-03-12T01:08:43.989Z,96439.78
2023-03-12T01:09:45.752Z,96440.59
2023-03-12T01:10:47.572Z,96446.09
2023-03-12T01:11:49.521Z,96444.94
2023-03-12T01:12:51.392Z,96446.56
2023-03-12T01:13:53.305Z,96443.81
2023-03-12T01:14:55.135Z,96441.06
2023-03-12T01:15:56.946Z,96444.47
2023-03-12T01:16:58.753Z,96445.63
2023-03-12T01:18:00.609Z,96442.41
2023-03-12T01:19:02.879Z,96445.13
2023-03-12T01:20:06.132Z,96446.75
2023-03-12T01:21:07.937Z,96448.81
2023-03-12T01:22:09.823Z,96442.38
2023-03-12T01:23:11.719Z,96444.44
2023-03-12T01:24:13.548Z,96450.22
2023-03-12T01:25:15.950Z,96442.34
2023-03-12T01:26:17.847Z,96444.28
2023-03-12T01:27:20.629Z,96448.63
2023-03-12T01:28:23.558Z,96446.22
2023-03-12T01:29:25.419Z,96440.28
2023-03-12T01:30:27.827Z,96442.38
2023-03-12T01:31:29.616Z,96449.31
2023-03-12T01:32:31.456Z,96448.97
2023-03-12T01:33:33.259Z,96447.03
2023-03-12T01:34:35.751Z,96450.22
2023-03-12T01:35:39.685Z,96446.69
2023-03-12T01:36:42.136Z,96446.69
2023-03-12T01:37:43.915Z,96448.81
2023-03-12T01:38:46.161Z,96453.16
2023-03-12T01:39:47.921Z,96445.94
2023-03-12T01:40:49.776Z,96444.66
2023-03-12T01:41:51.609Z,96453.22
2023-03-12T01:42:54.026Z,96444.22
2023-03-12T01:43:55.888Z,96449.34
2023-03-12T01:45:02.279Z,96460.31
2023-03-12T01:46:04.133Z,96457.38
2023-03-12T01:47:05.998Z,96449.66
2023-03-12T01:48:07.814Z,96449.34
2023-03-12T01:49:09.581Z,96460.28
2023-03-12T01:50:11.422Z,96456.28
2023-03-12T01:51:14.757Z,96449.34
2023-03-12T01:52:21.288Z,96465.13
2023-03-12T01:53:23.535Z,96467.06
2023-03-12T01:54:25.347Z,96460.34
2023-03-12T01:55:27.185Z,96465.13
2023-03-12T01:56:32.563Z,96464.03
2023-03-12T01:57:40.452Z,96464.81
2023-03-12T01:58:44.360Z,96469.19
2023-03-12T01:59:47.695Z,96469.19
2023-03-12T02:00:49.466Z,96463.19
2023-03-12T02:01:51.807Z,96463.84
2023-03-12T02:02:54.950Z,96461.91
2023-03-12T02:03:59.555Z,96467.25
2023-03-12T02:05:09.639Z,96467.72
2023-03-12T02:06:16.151Z,96470.63
2023-03-12T02:07:18.315Z,96465.97
2023-03-12T02:08:20.045Z,96459.81
2023-03-12T02:09:23.425Z,96457.91
2023-03-12T02:10:25.831Z,96455.97
2023-03-12T02:11:27.752Z,96461.91
2023-03-12T02:12:29.651Z,96463.38
2023-03-12T02:13:31.498Z,96467.56
2023-03-12T02:14:33.485Z,96459.69
2023-03-12T02:15:36.151Z,96459.84
2023-03-12T02:16:37.944Z,96460.00
2023-03-12T02:17:40.809Z,96461.00
2023-03-12T02:18:43.454Z,96460.03
2023-03-12T02:19:54.423Z,96457.78
2023-03-12T02:21:10.628Z,96460.53
2023-03-12T02:22:13.554Z,96462.13
2023-03-12T02:23:18.331Z,96465.19
2023-03-12T02:24:29.337Z,96467.44
2023-03-12T02:25:36.163Z,96473.88
2023-03-12T02:26:38.682Z,96470.00
2023-03-12T02:27:40.653Z,96478.38
2023-03-12T02:28:44.450Z,96472.09
2023-03-12T02:29:46.404Z,96482.25
2023-03-12T02:30:49.432Z,96483.19
2023-03-12T02:31:53.247Z,96481.41
2023-03-12T02:32:55.415Z,96481.25
2023-03-12T02:33:58.491Z,96483.03
2023-03-12T02:35:00.833Z,96483.69
2023-03-12T02:36:02.837Z,96486.09
2023-03-12T02:37:04.725Z,96488.66
2023-03-12T02:38:26.386Z,96484.16
2023-03-12T02:39:28.728Z,96488.34
2023-03-12T02:40:43.781Z,96488.16
2023-03-12T02:41:48.671Z,96488.03
2023-03-12T02:42:50.734Z,96486.59
2023-03-12T02:43:58.228Z,96489.00
2023-03-12T02:45:00.721Z,96483.22
2023-03-12T02:46:02.583Z,96484.84
2023-03-12T02:47:05.899Z,96498.38
2023-03-12T02:48:09.465Z,96492.88
2023-03-12T02:49:13.568Z,96489.97
2023-03-12T02:50:15.896Z,96487.41
2023-03-12T02:51:17.770Z,96491.59
2023-03-12T02:52:19.600Z,96491.59
2023-03-12T02:53:21.447Z,96501.88
2023-03-12T02:54:23.568Z,96500.94
2023-03-12T02:55:25.391Z,96499.66
2023-03-12T02:56:28.117Z,96498.69
2023-03-12T02:57:30.039Z,96506.09
2023-03-12T02:58:31.877Z,96508.34
2023-03-12T02:59:33.738Z,96510.91
2023-03-12T03:00:35.643Z,96511.88
2023-03-12T03:01:37.537Z,96507.03
2023-03-12T03:02:39.888Z,96508.03
2023-03-12T03:03:41.721Z,96515.75
2023-03-12T03:04:43.458Z,96518.34
2023-03-12T03:05:45.244Z,96517.03
2023-03-12T03:06:48.614Z,96518.97
2023-03-12T03:07:50.480Z,96521.56
2023-03-12T03:08:52.430Z,96529.44
2023-03-12T03:09:54.262Z,96520.28
2023-03-12T03:10:56.234Z,96530.56
2023-03-12T03:11:58.074Z,96523.50
2023-03-12T03:13:00.047Z,96527.50
2023-03-12T03:14:04.323Z,96530.09
2023-03-12T03:15:06.580Z,96533.44
2023-03-12T03:16:08.376Z,96523.94
2023-03-12T03:17:10.210Z,96538.28
2023-03-12T03:18:12.055Z,96534.91
2023-03-12T03:19:13.999Z,96540.69
2023-03-12T03:20:15.955Z,96536.03
2023-03-12T03:21:18.207Z,96534.75
2023-03-12T03:22:21.327Z,96538.94
2023-03-12T03:23:23.221Z,96540.88
2023-03-12T03:24:25.053Z,96542.47
2023-03-12T03:25:26.900Z,96542.16
2023-03-12T03:26:28.767Z,96543.75
2023-03-12T03:27:30.638Z,96545.38
2023-03-12T03:28:32.509Z,96541.03
2023-03-12T03:29:34.573Z,96541.34
2023-03-12T03:30:39.031Z,96540.22
2023-03-12T03:31:40.896Z,96538.13
2023-03-12T03:32:43.049Z,96536.81
2023-03-12T03:33:45.540Z,96537.16
2023-03-12T03:34:47.432Z,96538.59
2023-03-12T03:35:49.722Z,96538.44
2023-03-12T03:36:51.554Z,96539.41
2023-03-12T03:37:53.343Z,96540.84
2023-03-12T03:38:55.226Z,96539.09
2023-03-12T03:39:57.005Z,96534.75
2023-03-12T03:40:59.117Z,96540.69
2023-03-12T03:42:00.969Z,96536.97
2023-03-12T03:43:02.786Z,96542.97
2023-03-12T03:44:05.589Z,96538.75
2023-03-12T03:45:07.891Z,96544.72
2023-03-12T03:46:11.059Z,96537.81
2023-03-12T03:47:12.897Z,96539.25
2023-03-12T03:48:15.266Z,96539.91
2023-03-12T03:49:17.373Z,96543.75
2023-03-12T03:50:19.325Z,96541.81
2023-03-12T03:51:21.105Z,96542.97
2023-03-12T03:52:23.005Z,96541.81
2023-03-12T03:53:24.823Z,96542.81
2023-03-12T03:54:26.729Z,96541.69
2023-03-12T03:55:28.487Z,96542.31
2023-03-12T03:56:30.360Z,96542.16
2023-03-12T03:57:32.244Z,96543.91
2023-03-12T03:58:34.067Z,96544.41
2023-03-12T03:59:36.127Z,96547.13
2023-03-12T04:00:37.963Z,96540.69
2023-03-12T04:01:39.748Z,96544.06
2023-03-12T04:02:41.560Z,96537.63
2023-03-12T04:03:43.420Z,96538.91
2023-03-12T04:04:45.309Z,96546.47
2023-03-12T04:05:47.208Z,96543.25
2023-03-12T04:06:49.031Z,96541.81
2023-03-12T04:07:52.861Z,96543.09
2023-03-12T04:08:54.763Z,96533.44
2023-03-12T04:09:57.872Z,96541.16
2023-03-12T04:10:59.750Z,96539.22
2023-03-12T04:12:01.518Z,96541.16
2023-03-12T04:13:03.445Z,96541.16
2023-03-12T04:14:05.310Z,96542.88
2023-03-12T04:15:07.412Z,96545.94
2023-03-12T04:16:09.481Z,96542.22
2023-03-12T04:17:11.377Z,96541.28
2023-03-12T04:18:13.233Z,96546.28
2023-03-12T04:19:15.123Z,96546.44
2023-03-12T04:20:17.088Z,96542.22
2023-03-12T04:21:19.038Z,96549.31
2023-03-12T04:22:20.884Z,96554.78
2023-03-12T04:23:22.812Z,96548.50
2023-03-12T04:24:24.581Z,96546.09
2023-03-12T04:25:26.512Z,96549.03
2023-03-12T04:26:28.352Z,96550.47
2023-03-12T04:27:30.258Z,96547.41
2023-03-12T04:28:32.289Z,96552.25
2023-03-12T04:29:34.180Z,96548.22
2023-03-12T04:30:38.424Z,96553.03
2023-03-12T04:31:40.288Z,96554.00
2023-03-12T04:32:42.284Z,96559.97
2023-03-12T04:33:44.079Z,96558.50
2023-03-12T04:34:45.968Z,96562.03
2023-03-12T04:35:52.247Z,96556.88
2023-03-12T04:36:54.035Z,96555.56
2023-03-12T04:37:55.875Z,96558.78
2023-03-12T04:38:57.759Z,96555.28
2023-03-12T04:39:59.542Z,96552.53
2023-03-12T04:41:08.935Z,96551.44
2023-03-12T04:42:11.118Z,96553.81
2023-03-12T04:43:13.125Z,96555.28
2023-03-12T04:44:15.287Z,96558.16
2023-03-12T04:45:17.300Z,96563.66
2023-03-12T04:46:19.288Z,96561.53
2023-03-12T04:47:21.247Z,96556.84
2023-03-12T04:48:23.223Z,96559.13
2023-03-12T04:49:25.104Z,96559.44
2023-03-12T04:50:26.921Z,96560.75
2023-03-12T04:51:29.924Z,96558.97
2023-03-12T04:52:31.707Z,96557.53
2023-03-12T04:53:34.019Z,96559.44
2023-03-12T04:54:35.852Z,96566.38
2023-03-12T04:55:37.659Z,96562.34
2023-03-12T04:56:39.566Z,96557.84
2023-03-12T04:57:41.412Z,96562.81
2023-03-12T04:58:43.214Z,96565.56
2023-03-12T04:59:45.100Z,96570.06
2023-03-12T05:00:47.481Z,96569.25
2023-03-12T05:01:49.346Z,96561.38
2023-03-12T05:02:51.077Z,96568.78
2023-03-12T05:03:53.701Z,96569.44
2023-03-12T05:04:56.937Z,96563.16
2023-03-12T05:05:59.040Z,96570.72
2023-03-12T05:07:00.826Z,96579.09
2023-03-12T05:08:03.376Z,96576.31
2023-03-12T05:09:05.377Z,96570.84
2023-03-12T05:10:07.699Z,96570.69
2023-03-12T05:11:09.544Z,96570.03
2023-03-12T05:12:11.389Z,96572.63
2023-03-12T05:13:14.263Z,96581.13
2023-03-12T05:14:16.119Z,96583.06
2023-03-12T05:15:18.090Z,96584.66
2023-03-12T05:16:20.392Z,96582.91
2023-03-12T05:17:22.335Z,96579.34
2023-03-12T05:18:24.123Z,96585.16
2023-03-12T05:19:25.941Z,96580.00
2023-03-12T05:20:27.771Z,96583.38
2023-03-12T05:21:29.592Z,96590.16
2023-03-12T05:22:31.452Z,96585.47
2023-03-12T05:23:33.680Z,96582.84
2023-03-12T05:24:36.230Z,96588.81
2023-03-12T05:25:41.658Z,96589.28
2023-03-12T05:26:43.801Z,96587.38
2023-03-12T05:27:45.872Z,96588.19
2023-03-12T05:28:47.767Z,96605.88
2023-03-12T05:29:49.740Z,96591.44
2023-03-12T05:30:51.556Z,96592.06
2023-03-12T05:31:53.556Z,96603.00
2023-03-12T05:32:55.553Z,96602.88
2023-03-12T05:33:57.385Z,96603.63
2023-03-12T05:34:59.217Z,96608.09
2023-03-12T05:36:01.081Z,96612.75
2023-03-12T05:37:03.031Z,96607.09
2023-03-12T05:38:04.835Z,96606.16
2023-03-12T05:39:06.760Z,96609.50
2023-03-12T05:40:11.084Z,96615.31
2023-03-12T05:41:39.376Z,96612.13
2023-03-12T05:42:41.308Z,96619.00
2023-03-12T05:43:43.383Z,96617.69
2023-03-12T05:44:45.151Z,96614.94
2023-03-12T05:45:47.510Z,96614.31
2023-03-12T05:46:49.359Z,96616.59
2023-03-12T05:47:51.122Z,96621.72
2023-03-12T05:48:53.711Z,96629.91
2023-03-12T05:49:55.502Z,96626.84
2023-03-12T05:50:58.146Z,96624.53
2023-03-12T05:52:00.157Z,96622.63
2023-03-12T05:53:01.917Z,96622.19
2023-03-12T05:54:04.082Z,96613.03
2023-03-12T05:55:06.174Z,96617.56
2023-03-12T05:56:09.376Z,96621.63
2023-03-12T05:57:11.115Z,96618.69
2023-03-12T05:58:12.912Z,96622.38
2023-03-12T05:59:14.770Z,96614.81
2023-03-12T06:00:16.985Z,96624.94
2023-03-12T06:01:26.846Z,96620.59
2023-03-12T06:02:28.720Z,96628.03
2023-03-12T06:03:30.726Z,96624.19
2023-03-12T06:04:32.688Z,96627.56
2023-03-12T06:05:36.307Z,96618.38
2023-03-12T06:06:38.239Z,96626.09
2023-03-12T06:07:40.028Z,96627.22
2023-03-12T06:08:42.321Z,96627.41
2023-03-12T06:09:44.138Z,96626.91
2023-03-12T06:10:45.906Z,96624.19
2023-03-12T06:11:47.808Z,96625.94
2023-03-12T06:12:49.590Z,96620.78
2023-03-12T06:13:51.368Z,96623.88
2023-03-12T06:14:53.192Z,96627.41
2023-03-12T06:15:54.965Z,96622.75
2023-03-12T06:16:57.042Z,96627.44
2023-03-12T06:17:58.853Z,96622.94
2023-03-12T06:19:02.239Z,96622.16
2023-03-12T06:20:04.188Z,96620.38
2023-03-12T06:21:13.451Z,96619.56
2023-03-12T06:22:15.331Z,96611.53
2023-03-12T06:23:17.511Z,96618.97
2023-03-12T06:24:20.044Z,96615.22
2023-03-12T06:25:21.894Z,96622.16
2023-03-12T06:26:23.952Z,96608.66
2023-03-12T06:27:25.905Z,96619.44
2023-03-12T06:28:27.735Z,96608.84
2023-03-12T06:29:29.655Z,96618.00
2023-03-12T06:30:32.387Z,96618.78
2023-03-12T06:31:36.579Z,96623.13
2023-03-12T06:32:39.876Z,96623.44
2023-03-12T06:33:41.810Z,96623.44
2023-03-12T06:34:43.556Z,96627.44
2023-03-12T06:35:45.911Z,96628.72
2023-03-12T06:36:47.731Z,96613.94
2023-03-12T06:37:49.507Z,96619.56
2023-03-12T06:38:51.339Z,96614.09
2023-03-12T06:39:53.263Z,96616.81
2023-03-12T06:40:59.078Z,96623.06
2023-03-12T06:42:00.900Z,96623.72
2023-03-12T06:43:02.712Z,96622.44
2023-03-12T06:44:06.434Z,96623.75
2023-03-12T06:45:09.283Z,96624.91
2023-03-12T06:46:17.057Z,96609.75
2023-03-12T06:47:18.847Z,96613.59
2023-03-12T06:48:20.689Z,96614.91
2023-03-12T06:49:22.749Z,96628.91
2023-03-12T06:50:24.567Z,96624.09
2023-03-12T06:51:26.448Z,96624.09
2023-03-12T06:52:28.276Z,96622.19
2023-03-12T06:53:30.182Z,96615.09
2023-03-12T06:54:32.475Z,96614.94
2023-03-12T06:55:34.345Z,96628.28
2023-03-12T06:56:36.244Z,96622.31
2023-03-12T06:57:38.103Z,96629.25
2023-03-12T06:58:39.916Z,96632.63
2023-03-12T06:59:41.790Z,96627.66
2023-03-12T07:00:43.694Z,96627.19
2023-03-12T07:01:45.629Z,96626.88
2023-03-12T07:02:47.461Z,96629.97
2023-03-12T07:03:49.488Z,96628.47
2023-03-12T07:04:51.379Z,96637.47
2023-03-12T07:05:56.003Z,96631.53
2023-03-12T07:06:57.918Z,96630.88
2023-03-12T07:07:59.793Z,96630.56
2023-03-12T07:09:01.662Z,96636.03
2023-03-12T07:10:03.579Z,96635.25
2023-03-12T07:11:05.365Z,96633.16
2023-03-12T07:12:07.356Z,96627.34
2023-03-12T07:13:09.356Z,96637.81
2023-03-12T07:14:11.815Z,96629.31
2023-03-12T07:15:13.718Z,96633.84
2023-03-12T07:16:15.550Z,96635.78
2023-03-12T07:17:17.441Z,96630.28
2023-03-12T07:18:19.342Z,96629.03
2023-03-12T07:19:21.170Z,96627.44
2023-03-12T07:20:23.015Z,96628.72
2023-03-12T07:21:24.858Z,96628.09
2023-03-12T07:22:26.717Z,96632.75
2023-03-12T07:23:28.844Z,96629.03
2023-03-12T07:24:30.709Z,96627.75
2023-03-12T07:25:35.195Z,96630.00
2023-03-12T07:26:37.116Z,96632.91
2023-03-12T07:27:38.976Z,96634.84
2023-03-12T07:28:40.854Z,96627.78
2023-03-12T07:29:42.793Z,96627.78
2023-03-12T07:30:50.545Z,96632.28
2023-03-12T07:31:52.360Z,96626.31
2023-03-12T07:32:54.318Z,96632.28
2023-03-12T07:33:56.895Z,96628.44
2023-03-12T07:34:59.240Z,96632.47
2023-03-12T07:36:01.442Z,96630.69
2023-03-12T07:37:03.575Z,96627.81
2023-03-12T07:38:06.045Z,96632.47
2023-03-12T07:39:09.497Z,96632.97
2023-03-12T07:40:11.561Z,96634.91
2023-03-12T07:41:13.411Z,96631.69
2023-03-12T07:42:15.296Z,96633.94
2023-03-12T07:43:18.624Z,96626.84
2023-03-12T07:44:22.381Z,96623.97
2023-03-12T07:45:25.056Z,96625.72
2023-03-12T07:46:26.928Z,96619.75
2023-03-12T07:47:28.811Z,96622.81
2023-03-12T07:48:30.688Z,96630.22
2023-03-12T07:49:32.518Z,96631.53
2023-03-12T07:50:34.833Z,96623.13
2023-03-12T07:51:36.641Z,96630.84
2023-03-12T07:52:38.475Z,96628.25
2023-03-12T07:53:40.325Z,96623.88
2023-03-12T07:54:42.275Z,96627.91
2023-03-12T07:55:46.307Z,96628.06
2023-03-12T07:56:48.357Z,96626.41
2023-03-12T07:57:50.385Z,96627.38
2023-03-12T07:58:52.768Z,96613.00
2023-03-12T07:59:54.646Z,96621.22
2023-03-12T08:00:56.971Z,96626.50
2023-03-12T08:01:58.918Z,96618.38
2023-03-12T08:03:00.955Z,96620.78
2023-03-12T08:04:03.201Z,96619.47
2023-03-12T08:05:05.500Z,96623.81
2023-03-12T08:06:07.705Z,96626.34
2023-03-12T08:07:09.634Z,96619.06
2023-03-12T08:08:11.635Z,96623.72
2023-03-12T08:09:13.495Z,96618.50
2023-03-12T08:10:15.346Z,96618.00
2023-03-12T08:11:17.288Z,96611.97
2023-03-12T08:12:19.151Z,96621.00
2023-03-12T08:13:23.257Z,96612.75
2023-03-12T08:14:25.263Z,96609.63
2023-03-12T08:15:27.039Z,96610.72
2023-03-12T08:16:28.871Z,96611.34
2023-03-12T08:17:30.717Z,96607.78
2023-03-12T08:18:32.580Z,96610.19
2023-03-12T08:19:34.366Z,96614.22
2023-03-12T08:20:36.714Z,96612.47
2023-03-12T08:21:38.480Z,96615.59
2023-03-12T08:22:40.832Z,96605.38
2023-03-12T08:23:43.045Z,96607.41
2023-03-12T08:24:44.939Z,96606.88
2023-03-12T08:25:47.728Z,96613.31
2023-03-12T08:26:49.655Z,96608.72
2023-03-12T08:27:51.489Z,96611.66
2023-03-12T08:28:53.331Z,96616.59
2023-03-12T08:29:55.293Z,96615.09
2023-03-12T08:30:59.248Z,96608.75
2023-03-12T08:32:05.352Z,96603.22
2023-03-12T08:33:07.425Z,96608.84
2023-03-12T08:34:09.383Z,96606.69
2023-03-12T08:35:11.210Z,96608.13
2023-03-12T08:36:13.534Z,96600.78
2023-03-12T08:37:15.352Z,96611.97
2023-03-12T08:38:17.816Z,96608.22
2023-03-12T08:39:19.621Z,96603.50
2023-03-12T08:40:21.487Z,96601.53
2023-03-12T08:41:23.295Z,96602.16
2023-03-12T08:42:25.127Z,96603.75
2023-03-12T08:43:29.328Z,96609.09
2023-03-12T08:44:31.916Z,96603.56
2023-03-12T08:45:34.383Z,96603.56
2023-03-12T08:46:36.303Z,96605.84
2023-03-12T08:47:40.202Z,96608.06
2023-03-12T08:48:42.088Z,96607.25
2023-03-12T08:49:43.925Z,96611.44
2023-03-12T08:50:45.781Z,96615.09
2023-03-12T08:51:47.611Z,96613.16
2023-03-12T08:52:49.415Z,96618.41
2023-03-12T08:53:51.228Z,96609.91
2023-03-12T08:54:53.159Z,96618.13
2023-03-12T08:55:55.510Z,96603.41
2023-03-12T08:56:57.412Z,96612.59
2023-03-12T08:57:59.220Z,96609.00
2023-03-12T08:59:01.025Z,96610.25
2023-03-12T09:00:05.816Z,96609.28
2023-03-12T09:01:14.280Z,96611.47
2023-03-12T09:02:16.163Z,96613.72
2023-03-12T09:03:18.433Z,96612.47
2023-03-12T09:04:20.317Z,96614.69
2023-03-12T09:05:22.756Z,96623.09
2023-03-12T09:06:24.802Z,96618.53
2023-03-12T09:07:29.461Z,96612.19
2023-03-12T09:08:34.198Z,96618.19
2023-03-12T09:09:36.107Z,96622.19
2023-03-12T09:10:38.465Z,96620.84
2023-03-12T09:11:41.162Z,96619.41
2023-03-12T09:12:43.196Z,96626.19
2023-03-12T09:14:08.507Z,96625.22
2023-03-12T09:15:07.513Z,96626.28
2023-03-12T09:16:09.353Z,96628.09
2023-03-12T09:17:11.215Z,96619.47
2023-03-12T09:18:13.138Z,96624.84
2023-03-12T09:19:15.059Z,96622.44
2023-03-12T09:20:16.921Z,96629.06
2023-03-12T09:21:18.821Z,96626.72
2023-03-12T09:22:20.787Z,96628.31
2023-03-12T09:23:22.758Z,96622.97
2023-03-12T09:24:24.821Z,96623.13
2023-03-12T09:25:26.757Z,96621.97
2023-03-12T09:26:28.781Z,96623.19
2023-03-12T09:27:30.661Z,96624.25
2023-03-12T09:28:32.444Z,96616.47
2023-03-12T09:29:34.319Z,96624.50
2023-03-12T09:30:36.231Z,96629.94
2023-03-12T09:31:38.155Z,96620.63
2023-03-12T09:32:40.105Z,96620.44
2023-03-12T09:33:42.201Z,96622.03
2023-03-12T09:34:44.037Z,96616.66
2023-03-12T09:35:45.934Z,96619.09
2023-03-12T09:36:47.917Z,96624.50
2023-03-12T09:37:51.557Z,96623.53
2023-03-12T09:38:54.355Z,96620.66
2023-03-12T09:39:56.202Z,96628.84
2023-03-12T09:40:58.294Z,96628.66
2023-03-12T09:42:00.102Z,96627.47
2023-03-12T09:43:06.809Z,96628.88
2023-03-12T09:44:17.890Z,96633.91
2023-03-12T09:45:27.219Z,96622.91
2023-03-12T09:46:42.012Z,96620.31
2023-03-12T09:47:47.961Z,96625.56
2023-03-12T09:48:50.657Z,96618.81
2023-03-12T09:49:57.359Z,96622.66
2023-03-12T09:51:01.811Z,96631.66
2023-03-12T09:52:08.501Z,96627.72
2023-03-12T09:53:16.333Z,96621.94
2023-03-12T09:54:24.212Z,96629.81
2023-03-12T09:55:26.627Z,96629.22
2023-03-12T09:56:28.787Z,96631.66
2023-03-12T09:57:30.648Z,96630.41
2023-03-12T09:58:33.253Z,96632.41
2023-03-12T09:59:37.166Z,96628.19
2023-03-12T10:00:39.208Z,96630.34
2023-03-12T10:01:44.582Z,96629.69
2023-03-12T10:03:05.236Z,96627.09
2023-03-12T10:04:37.714Z,96628.50
2023-03-12T10:06:04.272Z,96622.34
2023-03-12T10:07:21.121Z,96624.19
2023-03-12T10:08:33.837Z,96622.81
2023-03-12T10:09:54.605Z,96629.19
2023-03-12T10:11:01.276Z,96623.13
2023-03-12T10:12:05.853Z,96623.69
2023-03-12T10:13:22.983Z,96619.31
2023-03-12T10:14:27.468Z,96614.91
2023-03-12T10:15:44.729Z,96620.06
2023-03-12T10:16:55.243Z,96612.09
2023-03-12T10:18:20.500Z,96616.53
2023-03-12T10:19:28.378Z,96617.16
2023-03-12T10:20:35.726Z,96619.16
2023-03-12T10:21:55.433Z,96625.97
2023-03-12T10:22:57.398Z,96619.59
2023-03-12T10:24:13.508Z,96621.75
2023-03-12T10:25:22.346Z,96614.41
2023-03-12T10:26:26.293Z,96616.81
2023-03-12T10:27:29.409Z,96615.03
2023-03-12T10:28:34.715Z,96618.84
2023-03-12T10:29:39.900Z,96615.06
2023-03-12T10:30:45.078Z,96619.03
2023-03-12T10:31:52.923Z,96617.44
2023-03-12T10:33:04.687Z,96626.03
2023-03-12T10:34:15.570Z,96627.59
2023-03-12T10:35:21.734Z,96624.22
2023-03-12T10:36:37.112Z,96627.44
2023-03-12T10:37:44.254Z,96622.06
2023-03-12T10:38:48.704Z,96628.84
2023-03-12T10:39:51.493Z,96630.28
2023-03-12T10:40:53.453Z,96628.09
2023-03-12T10:41:56.091Z,96631.72
2023-03-12T10:42:58.082Z,96631.97
2023-03-12T10:44:02.668Z,96633.19
2023-03-12T10:45:10.550Z,96638.59
2023-03-12T10:46:15.362Z,96637.06
2023-03-12T10:47:29.442Z,96637.84
2023-03-12T10:48:31.346Z,96649.00
2023-03-12T10:49:34.935Z,96643.75
2023-03-12T10:50:38.044Z,96639.94
2023-03-12T10:52:06.440Z,96639.38
2023-03-12T10:53:19.615Z,96636.16
2023-03-12T10:54:22.752Z,96640.19
2023-03-12T10:55:29.944Z,96640.13
2023-03-12T10:56:48.117Z,96637.16
2023-03-12T10:57:51.023Z,96637.94
2023-03-12T10:58:53.635Z,96637.19
2023-03-12T11:00:13.257Z,96634.16
2023-03-12T11:01:15.109Z,96632.53
2023-03-12T11:02:29.930Z,96633.75
2023-03-12T11:03:32.298Z,96632.72
2023-03-12T11:04:34.315Z,96625.53
2023-03-12T11:05:37.206Z,96634.63
2023-03-12T11:06:39.599Z,96630.56
2023-03-12T11:07:44.366Z,96626.13
2023-03-12T11:09:15.859Z,96625.25
2023-03-12T11:10:18.730Z,96630.13
2023-03-12T11:11:30.923Z,96632.91
2023-03-12T11:12:33.163Z,96641.69
2023-03-12T11:13:34.899Z,96635.44
2023-03-12T11:14:45.727Z,96635.75
2023-03-12T11:15:48.188Z,96636.38
2023-03-12T11:16:51.054Z,96638.94
2023-03-12T11:17:52.908Z,96646.19
2023-03-12T11:19:01.601Z,96637.16
2023-03-12T11:20:19.303Z,96636.34
2023-03-12T11:21:21.300Z,96637.25
2023-03-12T11:22:34.241Z,96639.03
2023-03-12T11:23:37.606Z,96634.47
2023-03-12T11:24:58.906Z,96637.47
2023-03-12T11:26:02.335Z,96638.16
2023-03-12T11:27:27.121Z,96636.25
2023-03-12T11:28:39.753Z,96637.47
2023-03-12T11:29:47.330Z,96635.91
2023-03-12T11:30:52.463Z,96637.38
2023-03-12T11:32:06.190Z,96635.38
2023-03-12T11:33:10.139Z,96628.03
2023-03-12T11:34:32.195Z,96631.63
2023-03-12T11:35:40.072Z,96633.16
2023-03-12T11:37:02.246Z,96630.81
2023-03-12T11:38:10.870Z,96636.75
2023-03-12T11:39:15.542Z,96630.81
2023-03-12T11:40:23.090Z,96632.19
2023-03-12T11:41:31.611Z,96633.94
2023-03-12T11:42:36.084Z,96621.94
2023-03-12T11:43:52.790Z,96626.91
2023-03-12T11:45:00.372Z,96630.81
2023-03-12T11:46:08.430Z,96622.13
2023-03-12T11:47:16.022Z,96627.91
2023-03-12T11:48:36.310Z,96626.91
2023-03-12T11:49:41.156Z,96625.31
2023-03-12T11:50:47.491Z,96630.69
2023-03-12T11:52:08.216Z,96622.13
2023-03-12T11:53:36.904Z,96623.72
2023-03-12T11:54:44.825Z,96622.03
2023-03-12T11:55:52.962Z,96625.84
2023-03-12T11:56:57.185Z,96626.41
2023-03-12T11:58:17.607Z,96624.44
2023-03-12T11:59:22.512Z,96624.63
2023-03-12T12:00:32.943Z,96623.66
2023-03-12T12:01:34.713Z,96619.13
2023-03-12T12:02:45.134Z,96619.94
2023-03-12T12:03:47.008Z,96624.28
2023-03-12T12:04:48.767Z,96619.00
2023-03-12T12:06:06.077Z,96617.47
2023-03-12T12:07:14.098Z,96620.63
2023-03-12T12:08:15.808Z,96614.47
2023-03-12T12:09:21.340Z,96615.88
2023-03-12T12:10:40.288Z,96618.81
2023-03-12T12:11:42.061Z,96624.09
2023-03-12T12:12:43.971Z,96620.44
2023-03-12T12:14:04.606Z,96614.47
2023-03-12T12:15:15.195Z,96615.75
2023-03-12T12:16:17.189Z,96612.75
2023-03-12T12:17:29.776Z,96613.28
2023-03-12T12:18:31.566Z,96616.22
2023-03-12T12:20:09.347Z,96615.44
2023-03-12T12:21:23.756Z,96625.50
2023-03-12T12:22:36.773Z,96618.94
2023-03-12T12:23:57.819Z,96623.09
2023-03-12T12:24:59.585Z,96623.47
2023-03-12T12:26:09.057Z,96629.63
2023-03-12T12:27:13.687Z,96617.16
2023-03-12T12:28:23.001Z,96625.38
2023-03-12T12:29:36.269Z,96620.44
2023-03-12T12:30:50.833Z,96616.06